EZY9016 EGCC-EGKK
Flight info
| Callsign | EZY9016 |
|---|---|
| Flight time | 0h 39m |
| Altitude | 19000 |
| Route | LISTO L612 HON N859 KIDLI |
| Aircraft | A320/M-SDE3FGHIRWY/LB1 |
Departure
| Time | 2026-05-06 12:56 |
|---|---|
| Airport | Manchester Airport (EGCC) |
Arrival
| Time | 2026-05-06 13:35 |
|---|---|
| Airport | London Gatwick Airport (EGKK) |
| Time | Latitude | Longitude | Altitude | Speed | Heading |
|---|---|---|---|---|---|
| 2026-05-06 12:31 | 53.36001 | -2.27140 | 255 ft | 0 kts | 89° |
| 2026-05-06 12:31 | 53.36001 | -2.27139 | 255 ft | 0 kts | 89° |
| 2026-05-06 12:33 | 53.36001 | -2.27140 | 255 ft | 0 kts | 89° |
| 2026-05-06 12:46 | 53.36001 | -2.27151 | 255 ft | 2 kts | 89° |
| 2026-05-06 12:46 | 53.36001 | -2.27184 | 255 ft | 3 kts | 89° |
| 2026-05-06 12:46 | 53.36001 | -2.27218 | 255 ft | 3 kts | 89° |
| 2026-05-06 12:47 | 53.36001 | -2.27241 | 255 ft | 3 kts | 89° |
| 2026-05-06 12:47 | 53.36001 | -2.27275 | 255 ft | 3 kts | 89° |
| 2026-05-06 12:47 | 53.36000 | -2.27282 | 255 ft | 0 kts | 89° |
| 2026-05-06 12:49 | 53.36000 | -2.27266 | 255 ft | 2 kts | 97° |
| 2026-05-06 12:49 | 53.35970 | -2.27243 | 255 ft | 6 kts | 175° |
| 2026-05-06 12:50 | 53.35930 | -2.27237 | 255 ft | 5 kts | 174° |
| 2026-05-06 12:50 | 53.35894 | -2.27230 | 255 ft | 5 kts | 173° |
| 2026-05-06 12:50 | 53.35861 | -2.27222 | 255 ft | 5 kts | 172° |
| 2026-05-06 12:50 | 53.35836 | -2.27225 | 255 ft | 3 kts | 214° |
| 2026-05-06 12:51 | 53.35823 | -2.27250 | 255 ft | 6 kts | 229° |
| 2026-05-06 12:51 | 53.35789 | -2.27317 | 255 ft | 7 kts | 230° |
| 2026-05-06 12:51 | 53.35754 | -2.27388 | 255 ft | 12 kts | 232° |
| 2026-05-06 12:51 | 53.35702 | -2.27501 | 255 ft | 12 kts | 232° |
| 2026-05-06 12:52 | 53.35653 | -2.27601 | 256 ft | 10 kts | 226° |
| 2026-05-06 12:52 | 53.35626 | -2.27646 | 254 ft | 11 kts | 225° |
| 2026-05-06 12:52 | 53.35571 | -2.27735 | 252 ft | 13 kts | 224° |
| 2026-05-06 12:52 | 53.35502 | -2.27849 | 248 ft | 15 kts | 225° |
| 2026-05-06 12:53 | 53.35424 | -2.27975 | 244 ft | 16 kts | 224° |
| 2026-05-06 12:53 | 53.35338 | -2.28112 | 240 ft | 18 kts | 223° |
| 2026-05-06 12:53 | 53.35247 | -2.28266 | 237 ft | 19 kts | 230° |
| 2026-05-06 12:53 | 53.35157 | -2.28454 | 231 ft | 22 kts | 230° |
| 2026-05-06 12:54 | 53.35052 | -2.28671 | 224 ft | 24 kts | 231° |
| 2026-05-06 12:54 | 53.34926 | -2.28896 | 216 ft | 29 kts | 227° |
| 2026-05-06 12:54 | 53.34798 | -2.29132 | 214 ft | 17 kts | 231° |
| 2026-05-06 12:54 | 53.34715 | -2.29294 | 213 ft | 19 kts | 224° |
| 2026-05-06 12:55 | 53.34620 | -2.29347 | 203 ft | 15 kts | 182° |
| 2026-05-06 12:55 | 53.34536 | -2.29276 | 205 ft | 13 kts | 129° |
| 2026-05-06 12:55 | 53.34553 | -2.29202 | 202 ft | 7 kts | 57° |
| 2026-05-06 12:55 | 53.34682 | -2.28934 | 214 ft | 66 kts | 51° |
| 2026-05-06 12:56 | 53.35114 | -2.28037 | 232 ft | 130 kts | 51° |
| 2026-05-06 12:56 | 53.35780 | -2.26705 | 508 ft | 158 kts | 49° |
| 2026-05-06 12:56 | 53.36476 | -2.25279 | 1331 ft | 158 kts | 51° |
| 2026-05-06 12:56 | 53.37183 | -2.23804 | 1968 ft | 173 kts | 51° |
| 2026-05-06 12:57 | 53.37855 | -2.21988 | 2383 ft | 199 kts | 75° |
| 2026-05-06 12:57 | 53.37688 | -2.19587 | 2864 ft | 227 kts | 117° |
| 2026-05-06 12:57 | 53.36517 | -2.17613 | 3460 ft | 252 kts | 146° |
| 2026-05-06 12:57 | 53.34883 | -2.16371 | 4374 ft | 266 kts | 167° |
| 2026-05-06 12:58 | 53.33010 | -2.16532 | 5210 ft | 273 kts | 195° |
| 2026-05-06 12:58 | 53.31191 | -2.17513 | 6290 ft | 278 kts | 195° |
| 2026-05-06 12:58 | 53.29261 | -2.18105 | 7202 ft | 285 kts | 186° |
| 2026-05-06 12:58 | 53.27271 | -2.18365 | 8237 ft | 288 kts | 184° |
| 2026-05-06 12:59 | 53.25258 | -2.18528 | 9238 ft | 292 kts | 184° |
| 2026-05-06 12:59 | 53.23220 | -2.18698 | 10201 ft | 296 kts | 184° |
| 2026-05-06 12:59 | 53.21077 | -2.18921 | 10592 ft | 320 kts | 185° |
| 2026-05-06 12:59 | 53.18777 | -2.19212 | 10907 ft | 343 kts | 186° |
| 2026-05-06 13:00 | 53.16347 | -2.19475 | 11477 ft | 356 kts | 181° |
| 2026-05-06 13:00 | 53.13853 | -2.19077 | 12270 ft | 363 kts | 170° |
| 2026-05-06 13:00 | 53.11413 | -2.17870 | 13069 ft | 369 kts | 159° |
| 2026-05-06 13:00 | 53.09028 | -2.16223 | 13880 ft | 373 kts | 158° |
| 2026-05-06 13:01 | 53.06622 | -2.14562 | 14589 ft | 377 kts | 159° |
| 2026-05-06 13:01 | 53.04187 | -2.12881 | 15308 ft | 381 kts | 159° |
| 2026-05-06 13:01 | 53.01728 | -2.11182 | 16018 ft | 385 kts | 159° |
| 2026-05-06 13:01 | 52.99237 | -2.09464 | 16733 ft | 388 kts | 159° |
| 2026-05-06 13:02 | 52.96730 | -2.07739 | 17445 ft | 392 kts | 159° |
| 2026-05-06 13:02 | 52.94200 | -2.06001 | 18146 ft | 396 kts | 159° |
| 2026-05-06 13:02 | 52.91645 | -2.04249 | 18756 ft | 399 kts | 159° |
| 2026-05-06 13:02 | 52.89069 | -2.02483 | 18980 ft | 400 kts | 159° |
| 2026-05-06 13:03 | 52.86500 | -2.00725 | 19054 ft | 413 kts | 159° |
| 2026-05-06 13:03 | 52.83796 | -1.98881 | 19035 ft | 425 kts | 159° |
| 2026-05-06 13:03 | 52.81045 | -1.97007 | 19056 ft | 429 kts | 159° |
| 2026-05-06 13:03 | 52.78290 | -1.95128 | 19053 ft | 429 kts | 159° |
| 2026-05-06 13:04 | 52.75532 | -1.93247 | 19055 ft | 429 kts | 159° |
| 2026-05-06 13:04 | 52.72767 | -1.91365 | 19057 ft | 429 kts | 159° |
| 2026-05-06 13:04 | 52.70009 | -1.89494 | 19053 ft | 429 kts | 159° |
| 2026-05-06 13:04 | 52.67243 | -1.87619 | 19031 ft | 429 kts | 159° |
| 2026-05-06 13:05 | 52.64480 | -1.85746 | 19028 ft | 429 kts | 159° |
| 2026-05-06 13:05 | 52.61720 | -1.83877 | 19032 ft | 429 kts | 159° |
| 2026-05-06 13:05 | 52.58962 | -1.82011 | 19026 ft | 429 kts | 159° |
| 2026-05-06 13:05 | 52.56198 | -1.80145 | 19028 ft | 429 kts | 159° |
| 2026-05-06 13:06 | 52.53436 | -1.78286 | 19026 ft | 429 kts | 159° |
| 2026-05-06 13:06 | 52.50676 | -1.76428 | 19037 ft | 429 kts | 159° |
| 2026-05-06 13:06 | 52.47913 | -1.74569 | 19032 ft | 429 kts | 159° |
| 2026-05-06 13:06 | 52.45152 | -1.72712 | 19036 ft | 429 kts | 159° |
| 2026-05-06 13:07 | 52.42388 | -1.70854 | 19029 ft | 429 kts | 159° |
| 2026-05-06 13:07 | 52.39626 | -1.69006 | 19025 ft | 429 kts | 159° |
| 2026-05-06 13:07 | 52.36867 | -1.67168 | 19034 ft | 429 kts | 159° |
| 2026-05-06 13:07 | 52.34091 | -1.65401 | 19022 ft | 428 kts | 161° |
| 2026-05-06 13:08 | 52.31278 | -1.63815 | 19023 ft | 428 kts | 163° |
| 2026-05-06 13:08 | 52.28435 | -1.62355 | 19018 ft | 428 kts | 165° |
| 2026-05-06 13:08 | 52.25589 | -1.60959 | 19017 ft | 428 kts | 165° |
| 2026-05-06 13:08 | 52.22737 | -1.59565 | 19020 ft | 428 kts | 165° |
| 2026-05-06 13:09 | 52.19891 | -1.58152 | 19023 ft | 428 kts | 164° |
| 2026-05-06 13:09 | 52.17050 | -1.56709 | 19021 ft | 428 kts | 164° |
| 2026-05-06 13:09 | 52.14207 | -1.55241 | 19025 ft | 428 kts | 164° |
| 2026-05-06 13:09 | 52.11368 | -1.53759 | 19027 ft | 428 kts | 164° |
| 2026-05-06 13:10 | 52.08528 | -1.52271 | 19027 ft | 428 kts | 164° |
| 2026-05-06 13:10 | 52.05694 | -1.50790 | 19025 ft | 428 kts | 164° |
| 2026-05-06 13:10 | 52.02860 | -1.49317 | 19024 ft | 428 kts | 164° |
| 2026-05-06 13:10 | 52.00015 | -1.47847 | 19007 ft | 428 kts | 164° |
| 2026-05-06 13:11 | 51.97174 | -1.46385 | 19012 ft | 428 kts | 164° |
| 2026-05-06 13:11 | 51.94350 | -1.44933 | 18999 ft | 419 kts | 164° |
| 2026-05-06 13:11 | 51.91604 | -1.43519 | 18392 ft | 413 kts | 164° |
| 2026-05-06 13:11 | 51.88831 | -1.42103 | 17365 ft | 420 kts | 164° |
| 2026-05-06 13:12 | 51.86078 | -1.40701 | 16907 ft | 410 kts | 164° |
| 2026-05-06 13:12 | 51.83373 | -1.39319 | 16329 ft | 405 kts | 164° |
| 2026-05-06 13:12 | 51.80699 | -1.37954 | 15769 ft | 401 kts | 164° |
| 2026-05-06 13:12 | 51.78066 | -1.36540 | 15187 ft | 398 kts | 159° |
| 2026-05-06 13:13 | 51.75606 | -1.34525 | 14774 ft | 394 kts | 148° |
| 2026-05-06 13:13 | 51.73312 | -1.32105 | 14691 ft | 394 kts | 148° |
| 2026-05-06 13:13 | 51.71013 | -1.29703 | 14559 ft | 393 kts | 148° |
| 2026-05-06 13:13 | 51.68711 | -1.27311 | 14410 ft | 393 kts | 148° |
| 2026-05-06 13:14 | 51.66417 | -1.24936 | 14224 ft | 392 kts | 148° |
| 2026-05-06 13:14 | 51.64121 | -1.22564 | 14080 ft | 391 kts | 148° |
| 2026-05-06 13:14 | 51.61861 | -1.20227 | 13915 ft | 390 kts | 148° |
| 2026-05-06 13:14 | 51.59581 | -1.17864 | 13751 ft | 390 kts | 148° |
| 2026-05-06 13:15 | 51.57305 | -1.15502 | 13580 ft | 389 kts | 148° |
| 2026-05-06 13:15 | 51.56536 | -1.14705 | 13527 ft | 389 kts | 148° |
| 2026-05-06 13:15 | 51.56219 | -1.14372 | 13525 ft | 389 kts | 146° |
| 2026-05-06 13:15 | 51.54026 | -1.11917 | 13331 ft | 388 kts | 147° |
| 2026-05-06 13:16 | 51.51774 | -1.09545 | 13185 ft | 387 kts | 148° |
| 2026-05-06 13:16 | 51.49497 | -1.07250 | 13026 ft | 386 kts | 149° |
| 2026-05-06 13:16 | 51.47218 | -1.04983 | 12865 ft | 385 kts | 149° |
| 2026-05-06 13:16 | 51.44942 | -1.02711 | 12704 ft | 385 kts | 149° |
| 2026-05-06 13:17 | 51.42679 | -1.00427 | 12543 ft | 383 kts | 148° |
| 2026-05-06 13:17 | 51.40434 | -0.98139 | 12385 ft | 383 kts | 148° |
| 2026-05-06 13:17 | 51.38192 | -0.95842 | 12239 ft | 382 kts | 148° |
| 2026-05-06 13:17 | 51.35958 | -0.93547 | 12068 ft | 381 kts | 148° |
| 2026-05-06 13:18 | 51.33724 | -0.91256 | 11916 ft | 381 kts | 148° |
| 2026-05-06 13:18 | 51.31499 | -0.88981 | 11757 ft | 380 kts | 148° |
| 2026-05-06 13:18 | 51.29275 | -0.86712 | 11604 ft | 379 kts | 148° |
| 2026-05-06 13:18 | 51.27057 | -0.84453 | 11449 ft | 378 kts | 148° |
| 2026-05-06 13:19 | 51.24835 | -0.82191 | 11286 ft | 378 kts | 148° |
| 2026-05-06 13:19 | 51.22621 | -0.79938 | 11129 ft | 377 kts | 147° |
| 2026-05-06 13:19 | 51.20415 | -0.77693 | 10963 ft | 376 kts | 147° |
| 2026-05-06 13:19 | 51.18241 | -0.75485 | 10823 ft | 363 kts | 147° |
| 2026-05-06 13:20 | 51.16156 | -0.73371 | 10694 ft | 347 kts | 147° |
| 2026-05-06 13:20 | 51.14161 | -0.71352 | 10568 ft | 333 kts | 147° |
| 2026-05-06 13:20 | 51.12248 | -0.69420 | 10438 ft | 318 kts | 147° |
| 2026-05-06 13:20 | 51.10433 | -0.67590 | 10090 ft | 303 kts | 147° |
| 2026-05-06 13:21 | 51.08664 | -0.65808 | 9489 ft | 298 kts | 147° |
| 2026-05-06 13:21 | 51.06933 | -0.64027 | 8820 ft | 295 kts | 142° |
| 2026-05-06 13:21 | 51.05855 | -0.62540 | 8377 ft | 293 kts | 133° |
| 2026-05-06 13:21 | 51.04715 | -0.60167 | 8056 ft | 289 kts | 119° |
| 2026-05-06 13:22 | 51.03798 | -0.57323 | 7984 ft | 289 kts | 114° |
| 2026-05-06 13:22 | 51.02899 | -0.54448 | 7976 ft | 292 kts | 114° |
| 2026-05-06 13:22 | 51.01991 | -0.51565 | 7977 ft | 292 kts | 115° |
| 2026-05-06 13:22 | 51.01082 | -0.48681 | 7975 ft | 291 kts | 115° |
| 2026-05-06 13:23 | 51.00176 | -0.45805 | 7976 ft | 291 kts | 115° |
| 2026-05-06 13:23 | 50.99270 | -0.42943 | 7975 ft | 290 kts | 115° |
| 2026-05-06 13:23 | 50.98365 | -0.40078 | 7973 ft | 290 kts | 115° |
| 2026-05-06 13:23 | 50.97465 | -0.37229 | 7678 ft | 288 kts | 115° |
| 2026-05-06 13:24 | 50.96569 | -0.34397 | 7269 ft | 287 kts | 115° |
| 2026-05-06 13:24 | 50.95678 | -0.31584 | 6985 ft | 284 kts | 115° |
| 2026-05-06 13:24 | 50.94791 | -0.28780 | 6973 ft | 285 kts | 115° |
| 2026-05-06 13:24 | 50.93899 | -0.25966 | 6976 ft | 286 kts | 115° |
| 2026-05-06 13:25 | 50.93002 | -0.23140 | 6943 ft | 285 kts | 115° |
| 2026-05-06 13:25 | 50.92118 | -0.20355 | 6571 ft | 283 kts | 115° |
| 2026-05-06 13:25 | 50.91234 | -0.17574 | 6149 ft | 282 kts | 115° |
| 2026-05-06 13:25 | 50.90366 | -0.14846 | 5990 ft | 270 kts | 114° |
| 2026-05-06 13:26 | 50.89548 | -0.12281 | 6002 ft | 253 kts | 114° |
| 2026-05-06 13:26 | 50.88769 | -0.09793 | 6012 ft | 260 kts | 110° |
| 2026-05-06 13:26 | 50.88449 | -0.06919 | 6006 ft | 270 kts | 82° |
| 2026-05-06 13:26 | 50.89025 | -0.04148 | 6008 ft | 265 kts | 53° |
| 2026-05-06 13:27 | 50.90342 | -0.02199 | 6002 ft | 259 kts | 25° |
| 2026-05-06 13:27 | 50.92058 | -0.01538 | 6005 ft | 255 kts | 356° |
| 2026-05-06 13:27 | 50.93744 | -0.02316 | 6004 ft | 255 kts | 328° |
| 2026-05-06 13:27 | 50.94967 | -0.04331 | 6011 ft | 259 kts | 300° |
| 2026-05-06 13:28 | 50.95508 | -0.07065 | 6014 ft | 263 kts | 283° |
| 2026-05-06 13:28 | 50.95816 | -0.09928 | 5991 ft | 263 kts | 281° |
| 2026-05-06 13:28 | 50.96000 | -0.11813 | 5772 ft | 261 kts | 281° |
| 2026-05-06 13:28 | 50.96273 | -0.14652 | 5306 ft | 261 kts | 281° |
| 2026-05-06 13:29 | 50.96547 | -0.17495 | 4855 ft | 261 kts | 281° |
| 2026-05-06 13:29 | 50.96814 | -0.20336 | 4429 ft | 260 kts | 281° |
| 2026-05-06 13:29 | 50.97074 | -0.23162 | 4006 ft | 258 kts | 281° |
| 2026-05-06 13:29 | 50.97339 | -0.25972 | 3580 ft | 257 kts | 281° |
| 2026-05-06 13:30 | 50.97666 | -0.28745 | 3189 ft | 253 kts | 292° |
| 2026-05-06 13:30 | 50.98625 | -0.30992 | 3012 ft | 247 kts | 317° |
| 2026-05-06 13:30 | 50.99908 | -0.32831 | 3006 ft | 249 kts | 321° |
| 2026-05-06 13:30 | 51.01218 | -0.34617 | 3005 ft | 250 kts | 321° |
| 2026-05-06 13:31 | 51.02542 | -0.36413 | 3009 ft | 249 kts | 322° |
| 2026-05-06 13:31 | 51.03964 | -0.37919 | 3000 ft | 245 kts | 341° |
| 2026-05-06 13:31 | 51.05598 | -0.38538 | 3004 ft | 234 kts | 351° |
| 2026-05-06 13:31 | 51.07139 | -0.38961 | 3007 ft | 218 kts | 351° |
| 2026-05-06 13:32 | 51.08599 | -0.39341 | 2968 ft | 206 kts | 352° |
| 2026-05-06 13:32 | 51.09990 | -0.39280 | 2809 ft | 199 kts | 14° |
| 2026-05-06 13:32 | 51.11249 | -0.38345 | 2508 ft | 202 kts | 36° |
| 2026-05-06 13:32 | 51.12193 | -0.36677 | 2263 ft | 206 kts | 57° |
| 2026-05-06 13:33 | 51.12674 | -0.34528 | 2001 ft | 205 kts | 75° |
| 2026-05-06 13:33 | 51.12962 | -0.32406 | 1773 ft | 185 kts | 75° |
| 2026-05-06 13:33 | 51.13222 | -0.30503 | 1512 ft | 169 kts | 75° |
| 2026-05-06 13:33 | 51.13466 | -0.28736 | 1266 ft | 156 kts | 71° |
| 2026-05-06 13:34 | 51.13689 | -0.27127 | 1080 ft | 142 kts | 71° |
| 2026-05-06 13:34 | 51.13888 | -0.25646 | 910 ft | 130 kts | 73° |
| 2026-05-06 13:34 | 51.14073 | -0.24260 | 721 ft | 126 kts | 73° |
| 2026-05-06 13:34 | 51.14285 | -0.22889 | 555 ft | 127 kts | 76° |
| 2026-05-06 13:35 | 51.14467 | -0.21518 | 333 ft | 127 kts | 76° |
| 2026-05-06 13:35 | 51.14657 | -0.20167 | 227 ft | 124 kts | 72° |
| 2026-05-06 13:35 | 51.14818 | -0.19006 | 210 ft | 86 kts | 78° |
| 2026-05-06 13:35 | 51.14929 | -0.18545 | 209 ft | 23 kts | 47° |
| 2026-05-06 13:36 | 51.14967 | -0.18471 | 209 ft | 5 kts | 52° |
| 2026-05-06 13:36 | 51.15028 | -0.18341 | 207 ft | 18 kts | 54° |
| 2026-05-06 13:36 | 51.15118 | -0.18197 | 215 ft | 17 kts | 16° |
| 2026-05-06 13:36 | 51.15241 | -0.18233 | 210 ft | 19 kts | 349° |
| 2026-05-06 13:37 | 51.15381 | -0.18273 | 205 ft | 21 kts | 348° |
| 2026-05-06 13:37 | 51.15518 | -0.18322 | 215 ft | 14 kts | 356° |
| 2026-05-06 13:37 | 51.15607 | -0.18253 | 216 ft | 15 kts | 25° |
| 2026-05-06 13:37 | 51.15676 | -0.18139 | 205 ft | 17 kts | 75° |
| 2026-05-06 13:38 | 51.15722 | -0.18001 | 205 ft | 12 kts | 26° |
| 2026-05-06 13:38 | 51.15771 | -0.17947 | 205 ft | 0 kts | 33° |